Time;durP1;ratioP1;P1;durP2;ratioP2;P2;SDS_P1;SDS_P2;PMS_P1;PMS_P2;Temp;Humidity;BMP_temperature;BMP_pressure;BME280_temperature;BME280_humidity;BME280_pressure;Samples;Min_cycle;Max_cycle;Signal;HPM_P1;HPM_P2
2024/01/27 00:01:35;;;;;;;24.63;3.83;;;4.60;99.90;;;;;;5038408;28;20039;-62
2024/01/27 00:04:02;;;;;;;9.57;1.27;;;4.60;99.90;;;;;;5036356;28;20053;-62
2024/01/27 00:06:28;;;;;;;17.63;2.55;;;4.60;99.90;;;;;;5040174;28;20037;-62
2024/01/27 00:08:53;;;;;;;21.25;3.00;;;4.70;99.90;;;;;;5037256;28;20590;-62
2024/01/27 00:11:20;;;;;;;8.75;1.50;;;4.70;99.90;;;;;;5040513;28;20119;-62
2024/01/27 00:13:46;;;;;;;15.73;3.20;;;4.70;99.90;;;;;;5056425;28;20128;-62
2024/01/27 00:16:12;;;;;;;19.23;2.42;;;4.70;99.90;;;;;;5041693;28;20547;-62
2024/01/27 00:18:38;;;;;;;27.08;2.58;;;4.70;99.90;;;;;;5039995;28;20471;-62
2024/01/27 00:21:06;;;;;;;15.68;2.83;;;4.70;99.90;;;;;;5040711;28;20043;-62
2024/01/27 00:23:52;;;;;;;18.10;3.08;;;4.70;99.90;;;;;;5038959;28;20470;-62
2024/01/27 00:26:18;;;;;;;26.27;2.65;;;4.80;99.90;;;;;;5036974;28;20049;-62
2024/01/27 00:28:44;;;;;;;7.63;1.60;;;4.70;99.90;;;;;;5042722;28;20037;-62
2024/01/27 00:31:11;;;;;;;24.20;3.15;;;4.70;99.90;;;;;;5040918;28;20502;-62
2024/01/27 00:33:36;;;;;;;20.45;3.00;;;4.70;99.90;;;;;;5041349;28;20048;-62
2024/01/27 00:36:02;;;;;;;9.68;1.73;;;4.60;99.90;;;;;;5037216;28;20053;-62
2024/01/27 00:38:29;;;;;;;13.00;1.25;;;4.60;99.90;;;;;;5040954;28;20572;-62
2024/01/27 00:40:54;;;;;;;19.38;2.78;;;4.60;99.90;;;;;;5042035;28;20532;-62
2024/01/27 00:43:20;;;;;;;16.38;1.95;;;4.60;99.90;;;;;;5039715;28;20069;-62
2024/01/27 00:45:46;;;;;;;30.15;2.72;;;4.50;99.90;;;;;;5038172;28;20049;-62
2024/01/27 00:48:13;;;;;;;29.23;4.25;;;4.50;99.90;;;;;;5041034;28;20126;-62
2024/01/27 00:50:39;;;;;;;6.90;1.52;;;4.50;99.90;;;;;;5041407;28;20087;-62
2024/01/27 00:53:05;;;;;;;30.63;3.20;;;4.40;99.90;;;;;;5042391;28;20041;-62
2024/01/27 00:55:30;;;;;;;23.65;3.58;;;4.40;99.90;;;;;;5039549;28;20529;-62
2024/01/27 00:57:56;;;;;;;21.63;3.20;;;4.40;99.90;;;;;;5042562;28;20091;-62
2024/01/27 01:00:22;;;;;;;17.77;2.00;;;4.40;99.90;;;;;;5038554;28;20330;-62
2024/01/27 01:02:48;;;;;;;19.45;3.47;;;4.30;99.90;;;;;;5031205;28;20461;-62
2024/01/27 01:05:14;;;;;;;11.88;1.95;;;4.40;99.90;;;;;;5036190;28;20041;-62
2024/01/27 01:07:39;;;;;;;22.85;3.13;;;4.40;99.90;;;;;;5031603;28;20064;-62
2024/01/27 01:10:06;;;;;;;26.02;2.50;;;4.40;99.90;;;;;;5035697;28;20041;-62
2024/01/27 01:12:32;;;;;;;25.85;3.20;;;4.40;99.90;;;;;;5041198;28;20049;-62
2024/01/27 01:14:58;;;;;;;25.65;3.40;;;4.40;99.90;;;;;;5040339;28;20492;-62
2024/01/27 01:17:23;;;;;;;20.15;2.30;;;4.30;99.90;;;;;;5039621;28;20085;-61
2024/01/27 01:19:49;;;;;;;32.15;3.70;;;4.30;99.90;;;;;;5039773;28;20530;-62
2024/01/27 01:22:21;;;;;;;23.15;3.10;;;4.20;99.90;;;;;;5031320;28;20059;-62
2024/01/27 01:24:47;;;;;;;34.92;4.22;;;4.20;99.90;;;;;;5038648;28;20155;-62
2024/01/27 01:27:12;;;;;;;19.65;3.08;;;4.10;99.90;;;;;;5040446;28;20470;-62
2024/01/27 01:29:40;;;;;;;32.70;3.88;;;4.00;99.90;;;;;;5041088;28;20243;-62
2024/01/27 01:32:06;;;;;;;23.35;2.42;;;4.00;99.90;;;;;;5044441;28;20052;-62
2024/01/27 01:34:34;;;;;;;23.60;2.40;;;4.00;99.90;;;;;;5043016;28;20045;-62
2024/01/27 01:37:01;;;;;;;29.17;3.65;;;4.00;99.90;;;;;;5045126;28;20056;-62
2024/01/27 01:39:27;;;;;;;26.27;3.15;;;4.00;99.90;;;;;;5043287;28;20051;-63
2024/01/27 01:41:59;;;;;;;38.47;3.63;;;4.00;99.90;;;;;;5044025;28;20230;-61
2024/01/27 01:44:30;;;;;;;35.53;4.10;;;4.00;99.90;;;;;;5043096;28;20099;-62
2024/01/27 01:46:56;;;;;;;24.55;2.85;;;4.00;99.90;;;;;;5042399;28;20334;-62
2024/01/27 01:49:23;;;;;;;39.38;4.30;;;4.10;99.90;;;;;;5044741;28;20049;-62
2024/01/27 01:51:50;;;;;;;20.17;2.58;;;4.10;99.90;;;;;;5039869;28;20045;-62
2024/01/27 01:54:16;;;;;;;35.75;3.92;;;4.00;99.90;;;;;;5045693;28;20122;-62
2024/01/27 01:56:42;;;;;;;26.80;3.55;;;4.00;99.90;;;;;;5040728;28;20079;-62
2024/01/27 01:59:08;;;;;;;24.00;2.70;;;4.00;99.90;;;;;;5045184;28;20044;-62
2024/01/27 02:01:35;;;;;;;27.52;3.33;;;3.90;99.90;;;;;;5040250;28;20087;-62
2024/01/27 02:04:01;;;;;;;36.38;3.97;;;3.90;99.90;;;;;;5044257;28;20116;-62
2024/01/27 02:06:27;;;;;;;19.33;2.72;;;3.90;99.90;;;;;;5040199;28;20178;-62
2024/01/27 02:08:52;;;;;;;26.27;3.58;;;3.90;99.90;;;;;;5042957;28;20041;-62
2024/01/27 02:11:18;;;;;;;39.08;3.30;;;3.90;99.90;;;;;;5037953;28;20047;-62
2024/01/27 02:13:44;;;;;;;22.52;2.85;;;3.90;99.90;;;;;;5043512;28;20045;-62
2024/01/27 02:16:10;;;;;;;17.27;1.60;;;3.90;99.90;;;;;;5026492;28;20043;-62
2024/01/27 02:18:35;;;;;;;14.75;2.00;;;3.90;99.90;;;;;;5042425;28;20049;-62
2024/01/27 02:21:01;;;;;;;22.10;2.00;;;3.90;99.90;;;;;;5044566;28;20167;-62
2024/01/27 02:23:27;;;;;;;6.35;1.23;;;4.00;99.90;;;;;;5042266;28;20060;-62
2024/01/27 02:25:53;;;;;;;19.40;2.20;;;3.90;99.90;;;;;;5043555;28;20041;-62
2024/01/27 02:28:19;;;;;;;18.55;2.42;;;4.00;99.90;;;;;;5042763;28;20491;-62
2024/01/27 02:30:44;;;;;;;32.70;3.53;;;4.10;99.90;;;;;;5042032;28;20051;-62
2024/01/27 02:33:11;;;;;;;22.00;2.72;;;4.00;99.90;;;;;;5044980;28;20571;-62
2024/01/27 02:35:37;;;;;;;16.33;2.80;;;4.00;99.90;;;;;;5041545;28;20057;-62
2024/01/27 02:38:03;;;;;;;9.13;1.95;;;4.00;99.90;;;;;;5037389;28;20041;-62
2024/01/27 02:40:29;;;;;;;24.00;3.22;;;4.00;99.90;;;;;;5042484;28;20060;-62
2024/01/27 02:42:55;;;;;;;24.08;2.97;;;4.10;99.90;;;;;;5029533;28;20132;-62
2024/01/27 02:45:21;;;;;;;34.03;4.53;;;4.10;99.90;;;;;;5038621;28;20114;-61
2024/01/27 02:47:46;;;;;;;22.25;3.42;;;4.00;99.90;;;;;;5037626;28;20131;-62
2024/01/27 02:50:12;;;;;;;29.35;3.63;;;4.00;99.90;;;;;;5042884;28;20044;-62
2024/01/27 02:52:38;;;;;;;17.08;2.10;;;3.90;99.90;;;;;;5034513;28;20614;-62
2024/01/27 02:55:06;;;;;;;15.75;2.20;;;3.90;99.90;;;;;;5025355;28;20102;-62
2024/01/27 02:57:33;;;;;;;26.90;3.35;;;3.90;99.90;;;;;;5036196;28;20055;-62
2024/01/27 02:59:59;;;;;;;14.20;1.92;;;3.90;99.90;;;;;;5023109;28;20071;-62
2024/01/27 03:02:24;;;;;;;29.33;3.80;;;3.90;99.90;;;;;;5020171;28;20044;-62
2024/01/27 03:04:50;;;;;;;16.75;2.67;;;3.90;99.90;;;;;;5041607;28;20179;-62
2024/01/27 03:07:16;;;;;;;22.90;2.28;;;3.90;99.90;;;;;;5041578;28;20438;-62
2024/01/27 03:09:42;;;;;;;25.38;2.88;;;3.90;99.90;;;;;;5028236;28;20115;-62
2024/01/27 03:12:08;;;;;;;23.80;2.47;;;3.90;99.90;;;;;;5038961;28;20037;-62
2024/01/27 03:14:34;;;;;;;14.55;2.85;;;3.80;99.90;;;;;;5039104;28;20124;-62
2024/01/27 03:17:00;;;;;;;22.17;2.35;;;3.80;99.90;;;;;;5040385;28;20136;-62
2024/01/27 03:19:26;;;;;;;15.13;2.08;;;3.80;99.90;;;;;;5041884;28;20033;-62
2024/01/27 03:21:52;;;;;;;19.75;2.15;;;3.80;99.90;;;;;;5024714;28;20052;-62
2024/01/27 03:24:24;;;;;;;24.77;2.85;;;3.70;99.90;;;;;;5041421;28;20626;-62
2024/01/27 03:26:50;;;;;;;28.13;3.53;;;3.70;99.90;;;;;;5040050;28;20084;-62
2024/01/27 03:29:15;;;;;;;25.95;3.33;;;3.70;99.90;;;;;;5037206;28;20084;-62
2024/01/27 03:31:49;;;;;;;21.73;3.47;;;3.70;99.90;;;;;;5040339;28;20436;-62
2024/01/27 03:34:15;;;;;;;17.30;2.50;;;3.70;99.90;;;;;;5042467;28;20131;-62
2024/01/27 03:36:40;;;;;;;19.83;2.70;;;3.70;99.90;;;;;;5038355;28;20567;-62
2024/01/27 03:39:07;;;;;;;25.25;3.00;;;3.70;99.90;;;;;;5041030;28;20111;-62
2024/01/27 03:41:33;;;;;;;15.23;1.60;;;3.70;99.90;;;;;;5037749;28;20049;-62
2024/01/27 03:43:59;;;;;;;13.88;1.73;;;3.90;99.90;;;;;;5030317;28;20049;-62
2024/01/27 03:46:25;;;;;;;10.93;2.38;;;3.80;99.90;;;;;;5038985;28;20040;-62
2024/01/27 03:48:50;;;;;;;32.53;3.28;;;3.80;99.90;;;;;;5041420;28;20044;-62
2024/01/27 03:51:16;;;;;;;18.77;2.33;;;3.80;99.90;;;;;;5042404;28;20404;-62
2024/01/27 03:53:42;;;;;;;27.17;2.88;;;3.80;99.90;;;;;;5040295;28;20037;-62
2024/01/27 03:56:12;;;;;;;24.17;3.60;;;3.70;99.90;;;;;;5040636;28;20476;-62
2024/01/27 03:58:39;;;;;;;6.95;0.95;;;3.70;99.90;;;;;;5039904;28;20080;-62
2024/01/27 04:01:05;;;;;;;10.82;1.40;;;3.70;99.90;;;;;;5041554;28;20525;-62
2024/01/27 04:03:30;;;;;;;14.68;1.73;;;3.70;99.90;;;;;;5043083;28;20079;-62
2024/01/27 04:05:56;;;;;;;14.13;2.33;;;3.80;99.90;;;;;;5037983;28;20045;-62
2024/01/27 04:08:22;;;;;;;10.07;2.50;;;3.80;99.90;;;;;;5042485;28;20495;-62
2024/01/27 04:10:48;;;;;;;21.63;2.25;;;3.80;99.90;;;;;;5036776;28;20171;-62
2024/01/27 04:13:13;;;;;;;31.48;2.80;;;3.80;99.90;;;;;;5041204;28;20120;-62
2024/01/27 04:15:39;;;;;;;10.32;1.83;;;3.80;99.90;;;;;;5038130;28;20041;-62
2024/01/27 04:18:08;;;;;;;26.88;2.63;;;3.70;99.90;;;;;;5042153;28;20051;-62
2024/01/27 04:20:34;;;;;;;21.70;2.38;;;3.60;99.90;;;;;;5041234;28;20117;-62
2024/01/27 04:23:04;;;;;;;35.95;2.65;;;3.60;99.90;;;;;;5039213;28;20048;-62
2024/01/27 04:25:30;;;;;;;18.27;3.40;;;3.60;99.90;;;;;;5041514;28;20407;-62
2024/01/27 04:27:56;;;;;;;24.33;3.88;;;3.60;99.90;;;;;;5020733;28;20052;-62
2024/01/27 04:30:22;;;;;;;27.17;2.97;;;3.50;99.90;;;;;;5036157;28;20041;-62
2024/01/27 04:32:49;;;;;;;21.60;2.33;;;3.50;99.90;;;;;;5040306;28;20056;-62
2024/01/27 04:35:16;;;;;;;23.58;3.78;;;3.50;99.90;;;;;;5040399;28;20400;-62
2024/01/27 04:37:46;;;;;;;33.45;2.75;;;3.40;99.90;;;;;;5042294;28;20510;-62
2024/01/27 04:40:12;;;;;;;21.60;2.25;;;3.50;99.90;;;;;;5037329;28;20049;-62
2024/01/27 04:42:39;;;;;;;29.75;3.55;;;3.40;99.90;;;;;;5042595;28;20575;-62
2024/01/27 04:45:05;;;;;;;33.00;3.45;;;3.40;99.90;;;;;;5039752;28;20092;-62
2024/01/27 04:47:31;;;;;;;24.15;3.20;;;3.40;99.90;;;;;;5041266;28;20047;-62
2024/01/27 04:49:58;;;;;;;17.63;2.22;;;3.40;99.90;;;;;;5037465;28;20480;-62
2024/01/27 04:52:25;;;;;;;27.00;2.78;;;3.30;99.90;;;;;;5041102;28;20075;-62
2024/01/27 04:54:58;;;;;;;17.30;2.30;;;3.30;99.90;;;;;;5040986;28;20639;-62
2024/01/27 04:57:23;;;;;;;8.23;1.05;;;3.30;99.90;;;;;;5041303;28;20041;-62
2024/01/27 04:59:49;;;;;;;5.63;0.98;;;3.30;99.90;;;;;;5042661;28;20051;-62
2024/01/27 05:02:15;;;;;;;26.45;2.95;;;3.30;99.90;;;;;;5037450;28;20036;-62
2024/01/27 05:04:41;;;;;;;14.88;2.17;;;3.30;99.90;;;;;;5040882;28;20503;-62
2024/01/27 05:07:07;;;;;;;19.48;2.33;;;3.30;99.90;;;;;;5044649;28;20333;-62
2024/01/27 05:09:35;;;;;;;11.35;2.03;;;3.30;99.90;;;;;;5041828;28;20045;-62
2024/01/27 05:12:01;;;;;;;22.25;2.88;;;3.40;99.90;;;;;;5044109;28;20045;-62
2024/01/27 05:14:27;;;;;;;21.88;3.22;;;3.30;99.90;;;;;;5044448;28;20040;-62
2024/01/27 05:16:53;;;;;;;16.95;2.03;;;3.30;99.90;;;;;;5044347;28;20080;-62
2024/01/27 05:19:19;;;;;;;29.15;4.35;;;3.30;99.90;;;;;;5043973;28;20410;-62
2024/01/27 05:21:45;;;;;;;18.02;2.47;;;3.30;99.90;;;;;;5044815;28;20061;-62
2024/01/27 05:24:10;;;;;;;18.35;2.67;;;3.20;99.90;;;;;;5041683;28;20118;-62
2024/01/27 05:26:36;;;;;;;25.67;3.17;;;3.20;99.90;;;;;;5046311;28;20437;-62
2024/01/27 05:29:02;;;;;;;23.08;3.03;;;3.10;99.90;;;;;;5043573;28;20040;-62
2024/01/27 05:31:28;;;;;;;23.67;2.92;;;3.10;99.90;;;;;;5045548;28;20052;-62
2024/01/27 05:33:55;;;;;;;26.17;3.22;;;3.00;99.90;;;;;;5043493;28;20124;-62
2024/01/27 05:36:20;;;;;;;21.08;2.83;;;3.10;99.90;;;;;;5041630;28;20040;-62
2024/01/27 05:38:46;;;;;;;28.48;3.00;;;3.00;99.90;;;;;;5044553;28;20443;-62
2024/01/27 05:41:13;;;;;;;21.63;2.45;;;3.00;99.90;;;;;;5043020;28;20415;-62
2024/01/27 05:43:38;;;;;;;28.63;2.60;;;3.10;99.90;;;;;;5044359;28;20045;-62
2024/01/27 05:46:04;;;;;;;20.13;3.20;;;3.10;99.90;;;;;;5043255;28;20475;-62
2024/01/27 05:48:31;;;;;;;33.83;2.67;;;3.10;99.90;;;;;;5044425;28;20424;-63
2024/01/27 05:50:59;;;;;;;33.33;3.17;;;3.10;99.90;;;;;;5043888;28;20064;-62
2024/01/27 05:53:31;;;;;;;23.92;3.53;;;3.10;99.90;;;;;;5043278;28;20048;-62
2024/01/27 05:55:57;;;;;;;27.85;2.88;;;3.00;99.90;;;;;;5042864;28;20111;-62
2024/01/27 05:58:23;;;;;;;14.55;1.85;;;3.00;99.90;;;;;;5041885;28;20128;-62
2024/01/27 06:00:49;;;;;;;20.95;2.55;;;3.00;99.90;;;;;;5039453;28;20033;-62
2024/01/27 06:03:16;;;;;;;26.70;2.60;;;3.00;99.90;;;;;;5041561;28;20174;-62
2024/01/27 06:05:42;;;;;;;19.83;3.03;;;3.00;99.90;;;;;;5043212;28;20045;-62
2024/01/27 06:08:08;;;;;;;18.55;2.63;;;3.00;99.90;;;;;;5042689;28;20497;-63
2024/01/27 06:10:36;;;;;;;15.93;2.55;;;3.00;99.90;;;;;;5041320;28;20578;-62
2024/01/27 06:13:02;;;;;;;17.58;2.75;;;3.00;99.90;;;;;;5043163;28;20499;-62
2024/01/27 06:15:36;;;;;;;34.30;2.58;;;3.00;99.90;;;;;;5040469;28;20107;-62
2024/01/27 06:18:02;;;;;;;34.03;3.10;;;3.00;99.90;;;;;;5032585;28;20053;-62
2024/01/27 06:20:28;;;;;;;30.10;3.13;;;3.00;99.90;;;;;;5041044;28;20321;-62
2024/01/27 06:22:55;;;;;;;23.35;2.38;;;3.00;99.90;;;;;;5026429;28;20102;-62
2024/01/27 06:25:21;;;;;;;18.77;2.65;;;3.00;99.90;;;;;;5042519;28;20118;-62
2024/01/27 06:27:47;;;;;;;13.30;2.67;;;3.00;99.90;;;;;;5027341;28;20045;-62
2024/01/27 06:30:14;;;;;;;18.98;2.70;;;3.10;99.90;;;;;;5058228;28;20420;-62
2024/01/27 06:32:40;;;;;;;25.10;3.05;;;3.10;99.90;;;;;;5043512;28;20408;-62
2024/01/27 06:35:06;;;;;;;15.52;2.05;;;3.10;99.90;;;;;;5044054;28;20086;-62
2024/01/27 06:37:31;;;;;;;19.13;2.60;;;3.10;99.90;;;;;;5042260;28;20094;-62
2024/01/27 06:39:57;;;;;;;21.05;2.10;;;3.00;99.90;;;;;;5044264;28;20048;-62
2024/01/27 06:42:24;;;;;;;25.80;2.10;;;3.10;99.90;;;;;;5034058;28;20037;-62
2024/01/27 06:44:50;;;;;;;20.63;2.13;;;3.10;99.90;;;;;;5043707;28;20495;-62
2024/01/27 06:47:16;;;;;;;25.00;2.58;;;3.10;99.90;;;;;;5041474;28;20518;-62
2024/01/27 06:49:41;;;;;;;21.98;3.13;;;3.10;99.90;;;;;;5042733;28;20465;-62
2024/01/27 06:52:07;;;;;;;25.60;2.45;;;3.10;99.90;;;;;;5044440;28;20053;-62
2024/01/27 06:54:36;;;;;;;19.00;2.22;;;3.00;99.90;;;;;;5040952;28;20084;-62
2024/01/27 06:57:02;;;;;;;16.75;2.83;;;3.00;99.90;;;;;;5044055;28;20045;-62
2024/01/27 06:59:28;;;;;;;24.30;2.00;;;2.90;99.90;;;;;;5036394;28;20049;-62
2024/01/27 07:01:55;;;;;;;27.48;2.78;;;3.00;99.90;;;;;;5043227;28;20441;-62
2024/01/27 07:04:20;;;;;;;12.45;1.88;;;2.90;99.90;;;;;;5042393;28;20058;-62
2024/01/27 07:06:46;;;;;;;24.40;2.60;;;2.90;99.90;;;;;;5043560;28;20057;-62
2024/01/27 07:09:12;;;;;;;21.95;2.72;;;2.90;99.90;;;;;;5036946;28;20484;-62
2024/01/27 07:11:39;;;;;;;23.38;3.50;;;2.90;99.90;;;;;;5040310;28;20839;-62
2024/01/27 07:14:14;;;;;;;33.70;3.45;;;2.90;99.90;;;;;;5043908;28;20052;-62
2024/01/27 07:16:40;;;;;;;21.92;2.92;;;2.90;99.90;;;;;;5036228;28;20561;-62
2024/01/27 07:19:06;;;;;;;23.30;2.63;;;2.90;99.90;;;;;;5040640;28;20056;-62
2024/01/27 07:21:31;;;;;;;25.13;2.17;;;2.90;99.90;;;;;;5039069;28;20040;-62
2024/01/27 07:23:57;;;;;;;24.05;2.20;;;3.00;99.90;;;;;;5058412;28;20411;-62
2024/01/27 07:26:23;;;;;;;6.90;1.52;;;3.00;99.90;;;;;;5031720;28;20080;-62
2024/01/27 07:28:48;;;;;;;15.73;2.60;;;3.00;99.90;;;;;;5040461;28;20503;-62
2024/01/27 07:31:15;;;;;;;12.98;2.30;;;3.10;99.90;;;;;;5042093;28;20152;-62
2024/01/27 07:33:41;;;;;;;20.05;2.63;;;3.20;99.90;;;;;;5041346;28;20504;-62
2024/01/27 07:36:06;;;;;;;17.52;2.50;;;3.20;99.90;;;;;;5043101;28;20052;-62
2024/01/27 07:38:32;;;;;;;22.20;2.03;;;3.20;99.90;;;;;;5040126;28;20040;-62
2024/01/27 07:40:59;;;;;;;27.42;2.75;;;3.20;99.90;;;;;;5041018;28;20049;-62
2024/01/27 07:43:25;;;;;;;12.88;1.85;;;3.20;99.90;;;;;;5041854;28;20144;-62
2024/01/27 07:45:52;;;;;;;21.13;2.78;;;3.10;99.90;;;;;;5041857;28;20040;-62
2024/01/27 07:48:18;;;;;;;23.55;2.70;;;3.10;99.90;;;;;;5043307;28;20048;-62
2024/01/27 07:50:48;;;;;;;27.77;2.25;;;3.10;99.90;;;;;;5055813;28;20056;-62
2024/01/27 07:53:15;;;;;;;15.45;2.17;;;3.10;99.90;;;;;;5041513;28;20048;-62
2024/01/27 07:55:41;;;;;;;19.73;2.22;;;3.10;99.90;;;;;;5039736;28;20036;-62
2024/01/27 07:58:06;;;;;;;19.23;2.15;;;3.20;99.90;;;;;;5035955;28;20139;-62
2024/01/27 08:00:32;;;;;;;15.93;2.28;;;3.20;99.90;;;;;;5028570;28;20065;-62
2024/01/27 08:02:58;;;;;;;21.65;1.92;;;3.20;99.90;;;;;;5039996;28;20032;-62
2024/01/27 08:05:24;;;;;;;17.52;2.80;;;3.30;99.90;;;;;;5038528;28;20139;-62
2024/01/27 08:07:49;;;;;;;18.55;2.10;;;3.40;99.90;;;;;;5037157;28;20559;-62
2024/01/27 08:10:15;;;;;;;24.35;3.72;;;3.30;99.90;;;;;;5034927;28;20044;-62
2024/01/27 08:12:41;;;;;;;9.73;1.67;;;3.40;99.90;;;;;;5038949;28;20048;-62
2024/01/27 08:15:07;;;;;;;10.85;2.22;;;3.40;99.90;;;;;;5039447;28;20045;-62
2024/01/27 08:17:33;;;;;;;18.60;1.45;;;3.40;99.90;;;;;;5039261;28;20055;-62
2024/01/27 08:20:00;;;;;;;23.05;2.60;;;3.50;99.90;;;;;;5041481;28;20049;-62
2024/01/27 08:22:26;;;;;;;17.85;1.80;;;3.60;99.90;;;;;;5040054;28;20712;-62
2024/01/27 08:24:52;;;;;;;19.13;2.83;;;3.60;99.90;;;;;;5039574;28;20056;-62
2024/01/27 08:27:18;;;;;;;20.45;2.28;;;3.70;99.90;;;;;;5039287;28;20041;-62
2024/01/27 08:29:43;;;;;;;26.95;2.88;;;3.70;99.90;;;;;;5039513;28;20056;-62
2024/01/27 08:32:09;;;;;;;31.98;2.70;;;3.80;99.90;;;;;;5033865;28;20491;-62
2024/01/27 08:34:35;;;;;;;25.02;3.17;;;3.80;99.90;;;;;;5031491;28;20048;-62
2024/01/27 08:37:28;;;;;;;23.42;2.67;;;3.90;99.90;;;;;;5035607;28;20478;-62
2024/01/27 08:39:54;;;;;;;11.93;2.10;;;3.90;99.90;;;;;;5035007;28;20520;-63
2024/01/27 08:42:20;;;;;;;18.73;2.45;;;4.00;99.90;;;;;;5035304;28;20063;-62
2024/01/27 08:44:46;;;;;;;19.08;2.35;;;4.00;99.90;;;;;;5041431;28;20069;-62
2024/01/27 08:47:12;;;;;;;23.42;2.70;;;4.00;99.90;;;;;;5037588;28;20052;-62
2024/01/27 08:49:37;;;;;;;15.95;2.42;;;4.10;99.90;;;;;;5035705;28;20500;-62
2024/01/27 08:52:03;;;;;;;11.73;1.90;;;4.20;99.90;;;;;;5039535;28;20539;-62
2024/01/27 08:54:29;;;;;;;26.08;2.45;;;4.30;99.90;;;;;;5033025;28;20048;-62
2024/01/27 08:56:55;;;;;;;16.45;2.25;;;4.30;99.90;;;;;;5037276;28;20128;-62
2024/01/27 08:59:21;;;;;;;34.38;3.25;;;4.40;99.90;;;;;;5039679;28;20152;-62
2024/01/27 09:01:47;;;;;;;27.30;3.22;;;4.40;99.90;;;;;;5038353;28;20080;-62
2024/01/27 09:04:12;;;;;;;24.48;2.63;;;4.50;99.90;;;;;;5033485;28;20380;-62
2024/01/27 09:06:38;;;;;;;11.38;1.83;;;4.50;99.90;;;;;;5038972;28;20488;-63
2024/01/27 09:09:04;;;;;;;17.52;2.45;;;4.50;99.90;;;;;;5022019;28;20452;-62
2024/01/27 09:11:30;;;;;;;25.02;2.75;;;4.60;99.90;;;;;;5029103;28;20129;-62
2024/01/27 09:13:56;;;;;;;13.02;2.10;;;4.70;99.90;;;;;;5027095;28;20124;-62
2024/01/27 09:16:23;;;;;;;26.55;2.78;;;4.70;99.90;;;;;;5039019;28;20084;-62
2024/01/27 09:18:52;;;;;;;17.48;2.17;;;4.80;99.90;;;;;;5029523;28;20426;-62
2024/01/27 09:21:27;;;;;;;9.98;1.50;;;4.90;99.90;;;;;;5026839;28;20055;-62
2024/01/27 09:23:54;;;;;;;24.17;3.42;;;4.90;99.90;;;;;;5029868;28;20053;-62
2024/01/27 09:26:19;;;;;;;22.13;3.30;;;5.00;99.90;;;;;;5025993;28;20128;-62
2024/01/27 09:28:53;;;;;;;25.40;3.53;;;5.10;99.90;;;;;;5038929;28;20136;-62
2024/01/27 09:31:21;;;;;;;24.58;3.45;;;5.10;99.90;;;;;;5036515;28;20044;-60
2024/01/27 09:33:52;;;;;;;20.17;2.95;;;5.20;99.90;;;;;;5026727;28;20048;-60
2024/01/27 09:36:19;;;;;;;22.38;3.05;;;5.20;99.90;;;;;;5030433;28;20455;-60
2024/01/27 09:38:46;;;;;;;18.30;2.67;;;5.30;99.90;;;;;;5036732;28;20114;-60
2024/01/27 09:41:13;;;;;;;31.98;3.15;;;5.30;99.90;;;;;;5033419;28;20561;-60
2024/01/27 09:43:46;;;;;;;30.83;3.63;;;5.40;99.90;;;;;;5032815;28;20422;-60
2024/01/27 09:46:12;;;;;;;15.33;2.27;;;5.50;99.90;;;;;;5031284;28;20380;-60
2024/01/27 09:48:39;;;;;;;23.08;2.83;;;5.50;99.90;;;;;;5039314;28;20056;-60
2024/01/27 09:51:07;;;;;;;22.02;2.17;;;5.60;99.90;;;;;;5041536;28;20400;-60
2024/01/27 09:53:34;;;;;;;11.93;1.95;;;5.60;99.90;;;;;;5044689;28;20486;-60
2024/01/27 09:56:01;;;;;;;25.80;3.53;;;5.60;99.90;;;;;;5040711;28;20079;-60
2024/01/27 09:58:29;;;;;;;28.45;4.72;;;5.70;99.90;;;;;;5038651;28;20487;-60
2024/01/27 10:01:00;;;;;;;28.83;3.90;;;5.70;99.90;;;;;;5042549;28;20084;-61
2024/01/27 10:03:27;;;;;;;34.67;4.07;;;5.70;99.90;;;;;;5042922;28;20041;-60
2024/01/27 10:05:54;;;;;;;18.00;4.28;;;5.80;99.90;;;;;;5043178;28;20056;-60
2024/01/27 10:08:24;;;;;;;29.48;4.75;;;5.90;99.90;;;;;;5043136;28;20053;-60
2024/01/27 10:10:55;;;;;;;22.30;3.93;;;5.90;99.90;;;;;;5035700;28;20056;-60
2024/01/27 10:13:27;;;;;;;18.75;3.17;;;5.90;99.90;;;;;;5036109;28;20395;-60
2024/01/27 10:16:06;;;;;;;24.33;4.00;;;6.00;99.90;;;;;;5043060;28;20060;-60
2024/01/27 10:18:33;;;;;;;22.48;5.10;;;6.00;99.90;;;;;;5043008;28;20044;-59
2024/01/27 10:20:59;;;;;;;26.10;3.42;;;6.00;99.90;;;;;;5042355;28;20045;-60
2024/01/27 10:23:25;;;;;;;26.17;5.15;;;6.10;99.90;;;;;;5041115;28;20312;-59
2024/01/27 10:25:52;;;;;;;20.95;4.15;;;6.10;99.90;;;;;;5038061;28;20048;-59
2024/01/27 10:28:18;;;;;;;33.72;4.97;;;6.20;99.90;;;;;;5044542;28;20068;-60
2024/01/27 10:30:44;;;;;;;22.08;3.22;;;6.30;99.90;;;;;;5039288;28;20163;-60
2024/01/27 10:33:13;;;;;;;24.55;4.82;;;6.40;99.90;;;;;;5043363;28;20045;-60
2024/01/27 10:35:40;;;;;;;26.92;4.60;;;6.40;99.90;;;;;;5041717;28;20055;-60
2024/01/27 10:38:06;;;;;;;25.70;3.92;;;6.50;99.90;;;;;;5038323;28;20456;-60
2024/01/27 10:40:33;;;;;;;24.83;3.05;;;6.60;99.90;;;;;;5043612;28;20092;-60
2024/01/27 10:43:07;;;;;;;27.88;4.00;;;6.50;99.90;;;;;;5039448;28;20080;-60
2024/01/27 10:45:41;;;;;;;25.98;3.95;;;6.60;99.90;;;;;;5037705;28;20430;-60
2024/01/27 10:48:12;;;;;;;21.20;4.20;;;6.70;99.90;;;;;;5053902;28;20056;-60
2024/01/27 10:50:39;;;;;;;17.23;2.67;;;6.70;99.90;;;;;;5040757;28;20100;-60
2024/01/27 10:53:09;;;;;;;19.20;4.32;;;6.70;99.90;;;;;;5035416;28;20505;-60
2024/01/27 10:55:37;;;;;;;11.35;2.05;;;6.70;99.90;;;;;;5042227;28;20616;-60
2024/01/27 10:58:03;;;;;;;26.85;4.47;;;6.70;99.90;;;;;;5034364;28;20265;-60
2024/01/27 11:00:33;;;;;;;25.77;3.90;;;6.80;99.90;;;;;;5042267;28;20509;-60
2024/01/27 11:03:01;;;;;;;19.40;2.90;;;6.80;99.90;;;;;;5038758;28;20597;-60
2024/01/27 11:05:29;;;;;;;28.42;4.50;;;6.90;99.90;;;;;;5035668;28;20135;-60
2024/01/27 11:07:56;;;;;;;23.30;4.45;;;6.90;99.90;;;;;;5014178;28;20092;-59
2024/01/27 11:10:23;;;;;;;22.42;4.13;;;6.90;99.90;;;;;;5026493;28;20084;-60
2024/01/27 11:12:50;;;;;;;30.60;5.32;;;7.00;99.90;;;;;;5040331;28;20049;-59
2024/01/27 11:15:16;;;;;;;25.10;4.05;;;7.00;99.90;;;;;;5042237;28;20060;-59
2024/01/27 11:17:42;;;;;;;35.33;4.50;;;7.10;99.90;;;;;;5040813;28;20037;-60
2024/01/27 11:20:11;;;;;;;32.17;3.85;;;7.20;99.90;;;;;;5035816;28;20135;-59
2024/01/27 11:22:37;;;;;;;19.48;3.97;;;7.30;99.90;;;;;;5040561;28;20632;-60
2024/01/27 11:25:13;;;;;;;27.00;4.18;;;7.30;99.90;;;;;;5040415;28;20053;-60
2024/01/27 11:27:40;;;;;;;16.45;2.47;;;7.30;99.90;;;;;;5038836;28;20106;-59
2024/01/27 11:30:23;;;;;;;18.67;3.30;;;7.30;99.90;;;;;;5043074;28;20958;-60
2024/01/27 11:32:49;;;;;;;36.72;4.70;;;7.40;99.90;;;;;;5031921;28;20041;-59
2024/01/27 11:35:17;;;;;;;20.88;3.20;;;7.40;99.90;;;;;;5035393;28;20042;-59
2024/01/27 11:37:43;;;;;;;23.50;4.18;;;7.50;99.90;;;;;;5031104;28;20040;-59
2024/01/27 11:40:11;;;;;;;22.17;3.30;;;7.50;99.90;;;;;;5037935;28;20047;-59
2024/01/27 11:42:36;;;;;;;18.70;2.88;;;7.60;99.90;;;;;;5038475;28;20459;-60
2024/01/27 11:45:03;;;;;;;24.65;4.45;;;7.60;99.90;;;;;;5040763;28;20166;-59
2024/01/27 11:47:29;;;;;;;18.90;3.13;;;7.60;99.90;;;;;;5037664;28;20083;-59
2024/01/27 11:49:57;;;;;;;21.85;4.95;;;7.70;99.90;;;;;;5034397;28;20532;-59
2024/01/27 11:52:25;;;;;;;22.20;4.25;;;7.70;99.90;;;;;;5041101;28;20182;-59
2024/01/27 11:54:54;;;;;;;37.80;4.53;;;7.70;99.90;;;;;;5040612;28;20060;-60
2024/01/27 11:57:20;;;;;;;31.45;4.82;;;7.80;99.90;;;;;;5039682;28;20036;-59
2024/01/27 11:59:47;;;;;;;32.95;4.78;;;7.80;99.90;;;;;;5053644;28;20044;-62
2024/01/27 12:02:14;;;;;;;21.80;3.83;;;7.80;99.90;;;;;;5034331;28;20230;-62
2024/01/27 12:04:40;;;;;;;22.35;4.25;;;7.90;99.90;;;;;;5040614;28;20125;-61
2024/01/27 12:07:07;;;;;;;21.27;3.92;;;8.00;99.90;;;;;;5039014;28;20041;-62
2024/01/27 12:09:33;;;;;;;27.75;4.07;;;8.00;99.90;;;;;;5035033;28;20068;-62
2024/01/27 12:11:59;;;;;;;27.83;4.00;;;8.00;99.90;;;;;;5028714;28;20111;-62
2024/01/27 12:14:25;;;;;;;25.92;3.97;;;8.00;99.90;;;;;;5036132;28;20041;-62
2024/01/27 12:16:53;;;;;;;27.13;3.95;;;8.10;99.90;;;;;;5038392;28;20052;-62
2024/01/27 12:19:19;;;;;;;27.65;3.88;;;8.10;99.90;;;;;;5038112;28;20111;-61
2024/01/27 12:21:49;;;;;;;17.38;2.83;;;8.10;99.90;;;;;;5041708;28;20084;-62
2024/01/27 12:24:18;;;;;;;13.85;2.63;;;8.10;99.90;;;;;;5033256;28;20126;-62
2024/01/27 12:26:45;;;;;;;24.95;4.32;;;8.10;99.90;;;;;;5041471;28;20053;-62
2024/01/27 12:29:11;;;;;;;27.10;5.35;;;8.20;99.90;;;;;;5035811;28;20532;-62
2024/01/27 12:31:37;;;;;;;27.15;3.88;;;8.20;99.90;;;;;;5022198;28;20098;-62
2024/01/27 12:34:03;;;;;;;29.23;3.45;;;8.30;99.90;;;;;;5034350;28;20059;-62
2024/01/27 12:36:31;;;;;;;21.45;3.25;;;8.30;99.90;;;;;;5039910;28;20052;-62
2024/01/27 12:39:03;;;;;;;21.63;3.42;;;8.40;99.90;;;;;;5038071;28;20049;-62
2024/01/27 12:41:29;;;;;;;22.90;3.75;;;8.40;99.90;;;;;;5040690;28;20044;-62
2024/01/27 12:43:55;;;;;;;29.95;4.07;;;8.50;99.90;;;;;;5039685;28;20056;-62
2024/01/27 12:46:22;;;;;;;29.83;3.90;;;8.50;99.90;;;;;;5042432;28;20041;-62